createdAt,value
2022-09-23T00:01:41.262Z,2.33
2022-09-23T00:04:08.667Z,2.00
2022-09-23T00:06:35.130Z,2.37
2022-09-23T00:09:01.673Z,2.30
2022-09-23T00:11:28.700Z,2.13
2022-09-23T00:13:57.039Z,2.50
2022-09-23T00:16:25.394Z,2.73
2022-09-23T00:18:52.295Z,2.23
2022-09-23T00:21:19.879Z,2.30
2022-09-23T00:23:48.346Z,2.43
2022-09-23T00:26:16.831Z,2.03
2022-09-23T00:28:43.951Z,2.63
2022-09-23T00:31:15.510Z,2.23
2022-09-23T00:33:42.272Z,2.10
2022-09-23T00:36:15.691Z,2.07
2022-09-23T00:38:42.542Z,2.10
2022-09-23T00:41:09.014Z,2.20
2022-09-23T00:43:47.011Z,2.10
2022-09-23T00:46:17.698Z,2.57
2022-09-23T00:48:44.928Z,2.00
2022-09-23T00:51:14.848Z,2.17
2022-09-23T00:53:41.533Z,2.30
2022-09-23T00:56:10.254Z,2.10
2022-09-23T00:58:39.869Z,2.20
2022-09-23T01:01:06.472Z,1.90
2022-09-23T01:03:33.109Z,2.47
2022-09-23T01:06:00.553Z,1.80
2022-09-23T01:08:27.835Z,2.43
2022-09-23T01:11:26.953Z,2.00
2022-09-23T01:14:13.929Z,2.30
2022-09-23T01:17:01.035Z,1.97
2022-09-23T01:19:36.691Z,2.13
2022-09-23T01:22:09.705Z,2.20
2022-09-23T01:24:39.758Z,1.87
2022-09-23T01:27:25.215Z,1.80
2022-09-23T01:29:51.983Z,2.30
2022-09-23T01:32:21.547Z,1.90
2022-09-23T01:35:07.740Z,2.37
2022-09-23T01:37:38.783Z,2.40
2022-09-23T01:40:06.338Z,2.30
2022-09-23T01:42:39.661Z,2.23
2022-09-23T01:45:10.963Z,2.50
2022-09-23T01:47:39.933Z,2.20
2022-09-23T01:50:28.286Z,2.10
2022-09-23T01:53:01.892Z,2.00
2022-09-23T01:55:33.778Z,1.97
2022-09-23T01:58:10.223Z,2.07
2022-09-23T02:00:41.432Z,2.50
2022-09-23T02:03:12.715Z,2.47
2022-09-23T02:05:42.047Z,2.23
2022-09-23T02:08:10.256Z,2.50
2022-09-23T02:11:05.811Z,2.10
2022-09-23T02:13:53.314Z,2.00
2022-09-23T02:16:26.397Z,2.43
2022-09-23T02:18:58.165Z,2.00
2022-09-23T02:21:28.717Z,2.30
2022-09-23T02:24:02.134Z,2.30
2022-09-23T02:26:40.065Z,2.20
2022-09-23T02:29:08.051Z,2.10
2022-09-23T02:31:45.732Z,2.33
2022-09-23T02:34:12.262Z,1.93
2022-09-23T02:36:53.285Z,2.10
2022-09-23T02:39:23.432Z,2.20
2022-09-23T02:42:04.706Z,2.30
2022-09-23T02:44:32.463Z,2.10
2022-09-23T02:46:59.273Z,2.47
2022-09-23T02:49:27.450Z,2.30
2022-09-23T02:51:54.738Z,1.87
2022-09-23T02:54:22.812Z,2.20
2022-09-23T02:56:49.594Z,2.27
2022-09-23T02:59:19.493Z,1.93
2022-09-23T03:02:01.739Z,2.20
2022-09-23T03:04:41.009Z,2.50
2022-09-23T03:07:14.667Z,2.60
2022-09-23T03:09:50.543Z,2.03
2022-09-23T03:12:23.113Z,2.40
2022-09-23T03:15:02.425Z,2.40
2022-09-23T03:17:34.961Z,2.23
2022-09-23T03:20:04.838Z,2.20
2022-09-23T03:22:34.725Z,2.37
2022-09-23T03:25:11.783Z,2.67
2022-09-23T03:27:44.104Z,2.57
2022-09-23T03:30:11.388Z,2.30
2022-09-23T03:32:38.575Z,2.43
2022-09-23T03:35:06.481Z,2.40
2022-09-23T03:37:43.685Z,2.40
2022-09-23T03:40:16.500Z,2.10
2022-09-23T03:42:43.396Z,2.53
2022-09-23T03:45:13.377Z,2.37
2022-09-23T03:47:40.066Z,2.03
2022-09-23T03:50:07.771Z,2.20
2022-09-23T03:52:34.418Z,2.30
2022-09-23T03:55:01.512Z,2.70
2022-09-23T03:57:28.058Z,2.40
2022-09-23T03:59:54.846Z,2.63
2022-09-23T04:02:22.133Z,2.80
2022-09-23T04:04:49.637Z,2.27
2022-09-23T04:07:16.361Z,2.10
2022-09-23T04:09:42.968Z,2.77
2022-09-23T04:12:13.226Z,2.43
2022-09-23T04:14:39.730Z,2.60
2022-09-23T04:17:06.302Z,2.33
2022-09-23T04:19:32.998Z,2.20
2022-09-23T04:21:59.672Z,2.33
2022-09-23T04:24:26.783Z,2.50
2022-09-23T04:26:55.157Z,2.10
2022-09-23T04:29:21.749Z,2.10
2022-09-23T04:31:48.821Z,2.47
2022-09-23T04:34:19.856Z,2.50
2022-09-23T04:36:47.376Z,2.50
2022-09-23T04:39:15.384Z,2.53
2022-09-23T04:41:43.408Z,2.50
2022-09-23T04:44:11.116Z,2.27
2022-09-23T04:46:39.120Z,2.20
2022-09-23T04:49:06.522Z,2.60
2022-09-23T04:51:33.349Z,2.30
2022-09-23T04:54:00.114Z,2.20
2022-09-23T04:56:29.064Z,2.57
2022-09-23T04:58:58.310Z,2.60
2022-09-23T05:01:26.904Z,2.07
2022-09-23T05:03:55.239Z,2.30
2022-09-23T05:06:22.280Z,2.47
2022-09-23T05:08:50.442Z,2.60
2022-09-23T05:11:18.735Z,2.40
2022-09-23T05:13:46.869Z,2.20
2022-09-23T05:16:13.679Z,2.53
2022-09-23T05:18:44.021Z,2.40
2022-09-23T05:21:11.332Z,2.50
2022-09-23T05:23:38.319Z,2.60
2022-09-23T05:26:06.730Z,2.33
2022-09-23T05:28:34.334Z,2.77
2022-09-23T05:31:03.187Z,2.70
2022-09-23T05:36:21.861Z,2.50
2022-09-23T05:38:50.020Z,2.63
2022-09-23T05:41:35.108Z,2.77
2022-09-23T05:44:03.408Z,2.13
2022-09-23T05:46:30.784Z,2.80
2022-09-23T05:49:02.636Z,2.70
2022-09-23T05:51:31.276Z,2.50
2022-09-23T05:53:58.573Z,2.93
2022-09-23T05:56:26.175Z,2.73
2022-09-23T05:58:53.716Z,2.80
2022-09-23T06:01:21.933Z,2.50
2022-09-23T06:03:49.323Z,2.70
2022-09-23T06:06:18.274Z,2.50
2022-09-23T06:08:45.591Z,2.63
2022-09-23T06:11:12.485Z,2.80
2022-09-23T06:13:39.515Z,2.63
2022-09-23T06:16:08.152Z,2.70
2022-09-23T06:18:35.174Z,2.70
2022-09-23T06:21:03.075Z,2.70
2022-09-23T06:23:30.035Z,2.70
2022-09-23T06:26:01.209Z,3.10
2022-09-23T06:28:32.613Z,3.00
2022-09-23T06:31:01.179Z,2.43
2022-09-23T06:33:36.237Z,2.50
2022-09-23T06:38:56.101Z,2.30
2022-09-23T06:41:22.696Z,2.50
2022-09-23T06:43:49.592Z,2.67
2022-09-23T06:46:16.532Z,2.67
2022-09-23T06:48:46.171Z,2.90
2022-09-23T06:51:19.151Z,2.80
2022-09-23T06:53:47.169Z,2.80
2022-09-23T06:56:14.090Z,2.40
2022-09-23T06:58:40.695Z,2.53
2022-09-23T07:01:08.620Z,2.33
2022-09-23T07:03:35.632Z,2.90
2022-09-23T07:06:02.342Z,2.67
2022-09-23T07:08:29.957Z,2.23
2022-09-23T07:11:00.631Z,2.50
2022-09-23T07:13:27.930Z,2.40
2022-09-23T07:15:56.716Z,2.50
2022-09-23T07:18:25.561Z,2.30
2022-09-23T07:20:52.677Z,2.50
2022-09-23T07:23:19.665Z,2.40
2022-09-23T07:25:47.008Z,2.50
2022-09-23T07:28:13.720Z,2.20
2022-09-23T07:30:52.148Z,2.83
2022-09-23T07:33:32.143Z,2.73
2022-09-23T07:36:08.800Z,2.50
2022-09-23T07:38:36.311Z,2.67
2022-09-23T07:41:04.056Z,2.17
2022-09-23T07:43:33.305Z,2.40
2022-09-23T07:46:00.806Z,2.70
2022-09-23T07:48:31.955Z,2.63
2022-09-23T07:51:06.763Z,2.53
2022-09-23T07:53:33.634Z,2.20
2022-09-23T07:56:00.313Z,2.17
2022-09-23T07:58:26.989Z,2.40
2022-09-23T08:00:54.284Z,2.73
2022-09-23T08:03:21.478Z,2.33
2022-09-23T08:05:48.319Z,2.33
2022-09-23T08:08:15.016Z,2.47
2022-09-23T08:10:41.760Z,2.40
2022-09-23T08:13:08.417Z,2.70
2022-09-23T08:15:35.106Z,2.47
2022-09-23T08:18:02.001Z,2.50
2022-09-23T08:20:47.115Z,2.97
2022-09-23T08:23:15.490Z,2.50
2022-09-23T08:25:44.975Z,2.70
2022-09-23T08:28:16.907Z,2.20
2022-09-23T08:30:44.459Z,2.70
2022-09-23T08:33:11.875Z,2.67
2022-09-23T08:35:38.807Z,2.60
2022-09-23T08:38:05.824Z,2.73
2022-09-23T08:40:37.734Z,2.43
2022-09-23T08:43:09.252Z,2.50
2022-09-23T08:45:37.058Z,2.63
2022-09-23T08:48:10.798Z,2.80
2022-09-23T08:50:42.921Z,2.70
2022-09-23T08:53:28.728Z,2.50
2022-09-23T08:55:58.328Z,2.43
2022-09-23T08:58:39.768Z,2.37
2022-09-23T09:01:18.670Z,2.70
2022-09-23T09:03:50.015Z,2.80
2022-09-23T09:06:19.216Z,2.67
2022-09-23T09:08:51.429Z,2.83
2022-09-23T09:11:19.523Z,2.60
2022-09-23T09:13:51.673Z,2.60
2022-09-23T09:16:42.111Z,2.43
2022-09-23T09:19:17.235Z,2.43
2022-09-23T09:21:46.434Z,2.53
2022-09-23T09:24:17.181Z,2.20
2022-09-23T09:26:43.979Z,2.13
2022-09-23T09:29:33.855Z,2.40
2022-09-23T09:32:02.717Z,2.47
2022-09-23T09:34:35.688Z,2.30
2022-09-23T09:37:07.643Z,2.57
2022-09-23T09:39:36.146Z,2.53
2022-09-23T09:42:04.184Z,2.30
2022-09-23T09:44:31.618Z,2.47
2022-09-23T09:47:08.125Z,2.33
2022-09-23T09:49:40.609Z,2.53
2022-09-23T09:52:20.797Z,2.20
2022-09-23T09:54:49.321Z,2.30
2022-09-23T09:57:32.171Z,1.90
2022-09-23T10:00:18.323Z,2.37
2022-09-23T10:02:45.255Z,2.57
2022-09-23T10:05:32.858Z,2.53
2022-09-23T10:08:21.163Z,1.80
2022-09-23T10:10:55.020Z,2.10
2022-09-23T10:13:24.849Z,2.00
2022-09-23T10:15:54.869Z,1.80
2022-09-23T10:18:36.213Z,1.97
2022-09-23T10:21:08.180Z,2.17
2022-09-23T10:23:38.695Z,2.20
2022-09-23T10:26:07.205Z,2.10
2022-09-23T10:28:42.907Z,2.20
2022-09-23T10:31:14.370Z,1.70
2022-09-23T10:33:52.075Z,2.20
2022-09-23T10:36:18.949Z,2.03
2022-09-23T10:38:48.285Z,2.40
2022-09-23T10:41:42.912Z,2.17
2022-09-23T10:44:19.843Z,1.80
2022-09-23T10:46:54.283Z,1.90
2022-09-23T10:49:28.138Z,1.77
2022-09-23T10:52:14.734Z,2.00
2022-09-23T10:54:57.031Z,2.20
2022-09-23T10:57:47.941Z,1.90
2022-09-23T11:00:23.242Z,1.90
2022-09-23T11:02:52.984Z,1.90
2022-09-23T11:05:25.433Z,2.00
2022-09-23T11:08:21.693Z,2.00
2022-09-23T11:11:10.051Z,2.00
2022-09-23T11:13:44.281Z,2.10
2022-09-23T11:16:24.750Z,1.90
2022-09-23T11:19:00.569Z,1.97
2022-09-23T11:21:37.117Z,1.70
2022-09-23T11:24:03.836Z,2.27
2022-09-23T11:26:45.523Z,2.00
2022-09-23T11:29:12.092Z,2.00
2022-09-23T11:31:48.810Z,1.90
2022-09-23T11:34:36.008Z,1.50
2022-09-23T11:37:07.189Z,2.33
2022-09-23T11:39:40.449Z,1.70
2022-09-23T11:42:12.848Z,1.80
2022-09-23T11:44:42.589Z,1.70
2022-09-23T11:47:11.666Z,1.83
2022-09-23T11:49:51.990Z,1.80
2022-09-23T11:52:21.695Z,1.80
2022-09-23T11:55:09.623Z,1.77
2022-09-23T11:57:53.914Z,1.60
2022-09-23T12:00:24.748Z,1.70
2022-09-23T12:03:04.114Z,1.70
2022-09-23T12:05:41.489Z,1.70
2022-09-23T12:08:28.619Z,1.53
2022-09-23T12:11:18.488Z,1.60
2022-09-23T12:13:49.873Z,1.73
2022-09-23T12:16:25.835Z,1.50
2022-09-23T12:18:57.072Z,2.13
2022-09-23T12:21:49.621Z,2.03
2022-09-23T12:24:26.803Z,2.20
2022-09-23T12:26:59.421Z,1.90
2022-09-23T12:31:56.970Z,1.50
2022-09-23T12:34:37.883Z,1.60
2022-09-23T12:37:05.657Z,1.33
2022-09-23T12:39:37.444Z,1.40
2022-09-23T12:42:14.553Z,1.50
2022-09-23T12:44:44.962Z,2.10
2022-09-23T12:47:14.754Z,1.80
2022-09-23T12:49:42.561Z,1.80
2022-09-23T12:52:13.279Z,1.60
2022-09-23T12:54:40.570Z,1.60
2022-09-23T12:57:15.128Z,1.67
2022-09-23T13:00:01.917Z,1.50
2022-09-23T13:02:33.824Z,1.90
2022-09-23T13:05:22.392Z,2.10
2022-09-23T13:07:50.131Z,1.80
2022-09-23T13:10:23.765Z,2.00
2022-09-23T13:12:52.577Z,1.97
2022-09-23T13:15:34.155Z,2.27
2022-09-23T13:18:19.390Z,1.80
2022-09-23T13:20:46.914Z,1.60
2022-09-23T13:23:16.575Z,1.90
2022-09-23T13:25:43.968Z,2.00
2022-09-23T13:28:31.301Z,2.73
2022-09-23T13:31:00.305Z,2.40
2022-09-23T13:33:30.040Z,1.90
2022-09-23T13:36:02.600Z,1.90
2022-09-23T13:38:32.007Z,1.80
2022-09-23T13:41:05.471Z,2.30
2022-09-23T13:43:41.379Z,2.10
2022-09-23T13:46:14.259Z,2.00
2022-09-23T13:48:43.422Z,1.97
2022-09-23T13:51:11.352Z,1.87
2022-09-23T13:53:38.751Z,1.77
2022-09-23T13:56:07.427Z,2.10
2022-09-23T13:58:35.061Z,2.03
2022-09-23T14:01:02.934Z,2.20
2022-09-23T14:03:36.804Z,1.90
2022-09-23T14:06:05.610Z,2.03
2022-09-23T14:08:32.367Z,2.10
2022-09-23T14:10:59.538Z,2.03
2022-09-23T14:13:27.752Z,2.00
2022-09-23T14:15:58.221Z,2.13
2022-09-23T14:18:28.887Z,1.80
2022-09-23T14:20:55.614Z,1.60
2022-09-23T14:23:22.256Z,2.03
2022-09-23T14:25:50.947Z,1.87
2022-09-23T14:28:19.174Z,1.77
2022-09-23T14:30:46.251Z,2.20
2022-09-23T14:33:15.319Z,1.90
2022-09-23T14:35:46.549Z,1.93
2022-09-23T14:38:39.496Z,2.27
2022-09-23T14:41:17.336Z,2.10
2022-09-23T14:43:55.995Z,2.00
2022-09-23T14:46:23.434Z,2.10
2022-09-23T14:48:55.268Z,1.83
2022-09-23T14:51:29.796Z,1.93
2022-09-23T14:54:16.566Z,1.90
2022-09-23T14:56:43.985Z,1.90
2022-09-23T14:59:24.160Z,1.87
2022-09-23T15:01:51.046Z,1.70
2022-09-23T15:04:31.452Z,1.93
2022-09-23T15:07:04.705Z,2.30
2022-09-23T15:09:38.032Z,1.93
2022-09-23T15:12:20.815Z,1.77
2022-09-23T15:14:53.349Z,1.80
2022-09-23T15:17:23.987Z,2.43
2022-09-23T15:19:59.645Z,1.90
2022-09-23T15:22:26.775Z,2.20
2022-09-23T15:25:02.898Z,2.20
2022-09-23T15:27:30.679Z,1.60
2022-09-23T15:30:23.546Z,1.90
2022-09-23T15:32:50.591Z,1.67
2022-09-23T15:35:19.256Z,2.00
2022-09-23T15:37:49.305Z,1.60
2022-09-23T15:40:23.415Z,2.00
2022-09-23T15:43:02.450Z,2.50
2022-09-23T15:45:30.093Z,1.77
2022-09-23T15:48:01.046Z,2.30
2022-09-23T15:50:28.855Z,1.47
2022-09-23T15:52:56.795Z,2.43
2022-09-23T15:55:23.782Z,2.70
2022-09-23T15:57:50.873Z,2.30
2022-09-23T16:00:17.851Z,2.00
2022-09-23T16:02:45.695Z,2.00
2022-09-23T16:05:35.852Z,2.10
2022-09-23T16:08:07.962Z,2.20
2022-09-23T16:10:37.207Z,2.43
2022-09-23T16:13:08.201Z,2.60
2022-09-23T16:15:35.155Z,2.23
2022-09-23T16:18:03.226Z,1.90
2022-09-23T16:20:30.746Z,1.80
2022-09-23T16:22:59.001Z,1.90
2022-09-23T16:25:28.441Z,2.20
2022-09-23T16:27:56.304Z,2.17
2022-09-23T16:30:24.247Z,2.13
2022-09-23T16:32:53.280Z,2.53
2022-09-23T16:35:20.866Z,1.83
2022-09-23T16:37:47.965Z,1.87
2022-09-23T16:40:19.875Z,1.70
2022-09-23T16:42:50.250Z,1.90
2022-09-23T16:45:17.926Z,2.07
2022-09-23T16:47:46.203Z,2.57
2022-09-23T16:50:13.647Z,2.43
2022-09-23T16:52:40.815Z,2.30
2022-09-23T16:55:08.802Z,2.30
2022-09-23T16:57:39.164Z,2.50
2022-09-23T17:00:29.149Z,2.53
2022-09-23T17:03:14.410Z,2.40
2022-09-23T17:05:46.409Z,2.37
2022-09-23T17:08:14.152Z,2.40
2022-09-23T17:10:41.460Z,2.53
2022-09-23T17:13:10.768Z,2.10
2022-09-23T17:15:37.910Z,2.80
2022-09-23T17:18:06.413Z,3.17
2022-09-23T17:20:33.338Z,3.60
2022-09-23T17:23:00.277Z,3.43
2022-09-23T17:25:26.916Z,3.83
2022-09-23T17:27:55.563Z,3.50
2022-09-23T17:30:22.139Z,3.70
2022-09-23T17:32:50.130Z,3.60
2022-09-23T17:35:16.650Z,3.40
2022-09-23T17:37:43.515Z,3.30
2022-09-23T17:40:11.184Z,3.77
2022-09-23T17:42:41.093Z,3.57
2022-09-23T17:45:08.702Z,3.40
2022-09-23T17:47:39.473Z,2.97
2022-09-23T17:50:08.068Z,4.53
2022-09-23T17:52:34.998Z,4.30
2022-09-23T17:55:02.106Z,4.03
2022-09-23T17:57:28.651Z,3.57
2022-09-23T17:59:56.265Z,4.40
2022-09-23T18:02:36.131Z,3.77
2022-09-23T18:05:03.088Z,4.00
2022-09-23T18:07:30.147Z,4.70
2022-09-23T18:09:58.217Z,4.37
2022-09-23T18:12:25.100Z,4.93
2022-09-23T18:14:52.089Z,6.17
2022-09-23T18:17:23.104Z,7.77
2022-09-23T18:19:51.851Z,6.57
2022-09-23T18:22:18.758Z,5.30
2022-09-23T18:24:45.693Z,5.43
2022-09-23T18:27:14.604Z,5.77
2022-09-23T18:29:41.236Z,5.43
2022-09-23T18:32:12.118Z,4.37
2022-09-23T18:34:40.634Z,3.90
2022-09-23T18:37:15.324Z,4.40
2022-09-23T18:39:43.028Z,4.30
2022-09-23T18:42:11.354Z,4.47
2022-09-23T18:44:38.311Z,3.90
2022-09-23T18:47:05.047Z,4.70
2022-09-23T18:49:50.519Z,4.07
2022-09-23T18:52:17.460Z,3.97
2022-09-23T18:54:44.121Z,4.17
2022-09-23T18:57:13.132Z,4.27
2022-09-23T18:59:40.092Z,5.37
2022-09-23T19:02:08.773Z,5.93
2022-09-23T19:04:38.544Z,5.83
2022-09-23T19:07:05.645Z,6.47
2022-09-23T19:09:32.263Z,7.53
2022-09-23T19:12:01.057Z,6.63
2022-09-23T19:14:27.890Z,6.70
2022-09-23T19:16:54.572Z,6.50
2022-09-23T19:19:21.242Z,6.07
2022-09-23T19:21:48.608Z,5.90
2022-09-23T19:24:19.885Z,6.30
2022-09-23T19:26:49.267Z,5.83
2022-09-23T19:29:17.777Z,6.97
2022-09-23T19:31:44.715Z,6.60
2022-09-23T19:34:13.851Z,6.77
2022-09-23T19:36:42.946Z,6.60
2022-09-23T19:39:22.238Z,6.33
2022-09-23T19:41:49.549Z,6.50
2022-09-23T19:44:16.672Z,6.83
2022-09-23T19:46:45.591Z,6.33
2022-09-23T19:49:15.070Z,5.63
2022-09-23T19:51:44.001Z,4.70
2022-09-23T19:54:19.038Z,4.13
2022-09-23T19:56:47.162Z,6.50
2022-09-23T19:59:17.859Z,5.60
2022-09-23T20:01:50.163Z,4.87
2022-09-23T20:04:16.820Z,4.93
2022-09-23T20:06:43.808Z,4.77
2022-09-23T20:09:10.799Z,4.47
2022-09-23T20:11:37.603Z,4.20
2022-09-23T20:14:06.596Z,3.90
2022-09-23T20:16:37.420Z,4.40
2022-09-23T20:19:04.881Z,3.67
2022-09-23T20:21:31.769Z,4.30
2022-09-23T20:24:00.260Z,4.87
2022-09-23T20:26:45.710Z,4.10
2022-09-23T20:29:12.515Z,4.37
2022-09-23T20:31:41.603Z,4.50
2022-09-23T20:34:10.557Z,3.80
2022-09-23T20:36:37.692Z,4.43
2022-09-23T20:39:09.155Z,4.13
2022-09-23T20:41:38.063Z,3.97
2022-09-23T20:44:10.658Z,3.97
2022-09-23T20:46:38.926Z,3.77
2022-09-23T20:49:08.877Z,4.10
2022-09-23T20:51:37.325Z,4.17
2022-09-23T20:54:04.404Z,3.70
2022-09-23T20:56:31.552Z,3.70
2022-09-23T20:59:01.927Z,3.63
2022-09-23T21:01:30.130Z,4.07
2022-09-23T21:03:56.967Z,3.77
2022-09-23T21:06:30.399Z,3.87
2022-09-23T21:08:58.305Z,3.73
2022-09-23T21:11:30.405Z,3.80
2022-09-23T21:14:00.744Z,3.83
2022-09-23T21:16:30.741Z,4.10
2022-09-23T21:19:00.847Z,3.33
2022-09-23T21:21:27.756Z,3.67
2022-09-23T21:24:03.567Z,3.50
2022-09-23T21:26:39.667Z,3.23
2022-09-23T21:29:06.760Z,3.50
2022-09-23T21:31:39.010Z,3.13
2022-09-23T21:34:09.618Z,3.70
2022-09-23T21:36:37.913Z,3.40
2022-09-23T21:39:05.646Z,3.50
2022-09-23T21:41:33.132Z,3.17
2022-09-23T21:44:00.320Z,3.30
2022-09-23T21:46:28.213Z,3.23
2022-09-23T21:48:55.407Z,3.40
2022-09-23T21:51:23.144Z,3.67
2022-09-23T21:53:49.699Z,4.30
2022-09-23T21:56:20.754Z,4.03
2022-09-23T21:58:47.922Z,4.17
2022-09-23T22:01:15.844Z,5.07
2022-09-23T22:03:45.271Z,5.40
2022-09-23T22:06:12.963Z,4.93
2022-09-23T22:08:43.216Z,5.60
2022-09-23T22:11:30.336Z,6.00
2022-09-23T22:13:58.504Z,5.50
2022-09-23T22:16:25.382Z,5.53
2022-09-23T22:18:55.226Z,5.23
2022-09-23T22:21:23.046Z,5.23
2022-09-23T22:23:53.649Z,5.53
2022-09-23T22:26:21.249Z,5.50
2022-09-23T22:29:09.037Z,5.97
2022-09-23T22:31:54.839Z,5.70
2022-09-23T22:34:48.083Z,5.60
2022-09-23T22:37:10.705Z,6.13
2022-09-23T22:39:37.471Z,5.63
2022-09-23T22:42:05.347Z,5.70
2022-09-23T22:44:32.134Z,5.47
2022-09-23T22:47:00.850Z,4.97
2022-09-23T22:49:27.490Z,5.27
2022-09-23T22:51:56.140Z,4.60
2022-09-23T22:54:22.870Z,4.93
2022-09-23T22:56:50.223Z,4.87
2022-09-23T22:59:16.832Z,4.53
2022-09-23T23:01:43.833Z,4.77
2022-09-23T23:04:12.506Z,4.80
2022-09-23T23:06:41.565Z,4.93
2022-09-23T23:09:18.505Z,4.57
2022-09-23T23:11:49.145Z,4.57
2022-09-23T23:14:17.665Z,4.93
2022-09-23T23:16:46.221Z,4.20
2022-09-23T23:19:14.398Z,4.87
2022-09-23T23:21:43.434Z,4.43
2022-09-23T23:24:20.434Z,4.63
2022-09-23T23:26:47.434Z,4.23
2022-09-23T23:29:15.007Z,4.60
2022-09-23T23:31:43.697Z,4.90
2022-09-23T23:34:14.869Z,4.40
2022-09-23T23:36:41.833Z,4.37
2022-09-23T23:39:10.144Z,4.57
2022-09-23T23:41:39.300Z,4.43
2022-09-23T23:44:06.384Z,3.90
2022-09-23T23:46:34.175Z,4.87
2022-09-23T23:49:00.796Z,4.20
2022-09-23T23:51:27.491Z,4.67
2022-09-23T23:53:54.866Z,4.40
2022-09-23T23:56:22.928Z,4.40
2022-09-23T23:58:56.479Z,4.60
